sensor_id;sensor_type;location;lat;lon;timestamp;P1;durP1;ratioP1;P2;durP2;ratioP2
55063;SDS011;40963;52.168;21.296;2022-11-21T00:00:48;64.47;;;23.67;;
55063;SDS011;40963;52.168;21.296;2022-11-21T00:03:15;63.42;;;24.33;;
55063;SDS011;40963;52.168;21.296;2022-11-21T00:05:42;72.95;;;24.73;;
55063;SDS011;40963;52.168;21.296;2022-11-21T00:08:10;69.68;;;24.13;;
55063;SDS011;40963;52.168;21.296;2022-11-21T00:10:37;65.45;;;25.15;;
55063;SDS011;40963;52.168;21.296;2022-11-21T00:13:04;70.90;;;26.85;;
55063;SDS011;40963;52.168;21.296;2022-11-21T00:15:31;66.50;;;24.92;;
55063;SDS011;40963;52.168;21.296;2022-11-21T00:18:00;68.63;;;24.83;;
55063;SDS011;40963;52.168;21.296;2022-11-21T00:20:27;64.28;;;23.50;;
55063;SDS011;40963;52.168;21.296;2022-11-21T00:22:53;65.72;;;24.90;;
55063;SDS011;40963;52.168;21.296;2022-11-21T00:25:19;67.60;;;26.42;;
55063;SDS011;40963;52.168;21.296;2022-11-21T00:27:44;67.70;;;24.65;;
55063;SDS011;40963;52.168;21.296;2022-11-21T00:30:10;68.63;;;26.33;;
55063;SDS011;40963;52.168;21.296;2022-11-21T00:32:36;73.65;;;25.83;;
55063;SDS011;40963;52.168;21.296;2022-11-21T00:35:03;67.82;;;25.40;;
55063;SDS011;40963;52.168;21.296;2022-11-21T00:37:33;66.32;;;24.60;;
55063;SDS011;40963;52.168;21.296;2022-11-21T00:39:59;68.40;;;24.45;;
55063;SDS011;40963;52.168;21.296;2022-11-21T00:42:25;73.95;;;21.95;;
55063;SDS011;40963;52.168;21.296;2022-11-21T00:44:50;64.70;;;22.60;;
55063;SDS011;40963;52.168;21.296;2022-11-21T00:47:16;71.22;;;25.23;;
55063;SDS011;40963;52.168;21.296;2022-11-21T00:49:42;59.55;;;23.05;;
55063;SDS011;40963;52.168;21.296;2022-11-21T00:52:07;77.32;;;24.15;;
55063;SDS011;40963;52.168;21.296;2022-11-21T00:54:33;58.88;;;23.35;;
55063;SDS011;40963;52.168;21.296;2022-11-21T00:56:59;67.65;;;24.20;;
55063;SDS011;40963;52.168;21.296;2022-11-21T00:59:24;64.80;;;24.05;;
55063;SDS011;40963;52.168;21.296;2022-11-21T01:01:50;55.00;;;22.77;;
55063;SDS011;40963;52.168;21.296;2022-11-21T01:04:16;62.35;;;24.20;;
55063;SDS011;40963;52.168;21.296;2022-11-21T01:06:41;74.00;;;24.90;;
55063;SDS011;40963;52.168;21.296;2022-11-21T01:09:07;66.72;;;25.67;;
55063;SDS011;40963;52.168;21.296;2022-11-21T01:11:33;68.18;;;25.67;;
55063;SDS011;40963;52.168;21.296;2022-11-21T01:13:58;62.55;;;24.48;;
55063;SDS011;40963;52.168;21.296;2022-11-21T01:16:25;64.47;;;24.85;;
55063;SDS011;40963;52.168;21.296;2022-11-21T01:18:52;63.42;;;25.08;;
55063;SDS011;40963;52.168;21.296;2022-11-21T01:21:18;63.67;;;24.02;;
55063;SDS011;40963;52.168;21.296;2022-11-21T01:23:47;69.40;;;26.67;;
55063;SDS011;40963;52.168;21.296;2022-11-21T01:26:14;67.72;;;24.77;;
55063;SDS011;40963;52.168;21.296;2022-11-21T01:28:41;68.28;;;25.42;;
55063;SDS011;40963;52.168;21.296;2022-11-21T01:31:10;72.55;;;28.25;;
55063;SDS011;40963;52.168;21.296;2022-11-21T01:33:37;68.07;;;26.05;;
55063;SDS011;40963;52.168;21.296;2022-11-21T01:38:41;56.92;;;22.55;;
55063;SDS011;40963;52.168;21.296;2022-11-21T01:41:09;65.88;;;24.48;;
55063;SDS011;40963;52.168;21.296;2022-11-21T01:43:35;63.85;;;24.55;;
55063;SDS011;40963;52.168;21.296;2022-11-21T01:51:00;63.70;;;24.05;;
55063;SDS011;40963;52.168;21.296;2022-11-21T01:53:32;65.32;;;24.63;;
55063;SDS011;40963;52.168;21.296;2022-11-21T01:55:59;62.45;;;25.73;;
55063;SDS011;40963;52.168;21.296;2022-11-21T01:58:25;69.13;;;26.38;;
55063;SDS011;40963;52.168;21.296;2022-11-21T02:00:53;78.80;;;26.83;;
55063;SDS011;40963;52.168;21.296;2022-11-21T02:03:20;63.30;;;25.63;;
55063;SDS011;40963;52.168;21.296;2022-11-21T02:05:51;64.10;;;25.77;;
55063;SDS011;40963;52.168;21.296;2022-11-21T02:08:19;70.50;;;26.35;;
55063;SDS011;40963;52.168;21.296;2022-11-21T02:11:34;64.90;;;24.65;;
55063;SDS011;40963;52.168;21.296;2022-11-21T02:13:49;63.17;;;25.65;;
55063;SDS011;40963;52.168;21.296;2022-11-21T02:16:15;64.03;;;25.17;;
55063;SDS011;40963;52.168;21.296;2022-11-21T02:18:41;77.28;;;27.45;;
55063;SDS011;40963;52.168;21.296;2022-11-21T02:21:18;75.97;;;26.63;;
55063;SDS011;40963;52.168;21.296;2022-11-21T02:24:11;65.28;;;26.20;;
55063;SDS011;40963;52.168;21.296;2022-11-21T02:26:42;66.47;;;26.75;;
55063;SDS011;40963;52.168;21.296;2022-11-21T02:29:10;70.80;;;25.58;;
55063;SDS011;40963;52.168;21.296;2022-11-21T02:31:35;60.70;;;24.60;;
55063;SDS011;40963;52.168;21.296;2022-11-21T02:34:01;64.47;;;23.85;;
55063;SDS011;40963;52.168;21.296;2022-11-21T02:39:31;71.78;;;24.98;;
55063;SDS011;40963;52.168;21.296;2022-11-21T02:42:08;76.88;;;27.42;;
55063;SDS011;40963;52.168;21.296;2022-11-21T02:44:52;63.88;;;26.17;;
55063;SDS011;40963;52.168;21.296;2022-11-21T02:47:34;67.70;;;24.88;;
55063;SDS011;40963;52.168;21.296;2022-11-21T02:50:06;84.28;;;27.73;;
55063;SDS011;40963;52.168;21.296;2022-11-21T02:52:36;74.57;;;25.15;;
55063;SDS011;40963;52.168;21.296;2022-11-21T02:55:02;58.92;;;24.73;;
55063;SDS011;40963;52.168;21.296;2022-11-21T02:57:28;55.35;;;24.42;;
55063;SDS011;40963;52.168;21.296;2022-11-21T02:59:54;62.28;;;26.23;;
55063;SDS011;40963;52.168;21.296;2022-11-21T03:02:19;59.25;;;23.95;;
55063;SDS011;40963;52.168;21.296;2022-11-21T03:04:45;70.00;;;25.23;;
55063;SDS011;40963;52.168;21.296;2022-11-21T03:07:11;54.08;;;21.85;;
55063;SDS011;40963;52.168;21.296;2022-11-21T03:09:37;64.55;;;22.98;;
55063;SDS011;40963;52.168;21.296;2022-11-21T03:12:06;71.07;;;25.48;;
55063;SDS011;40963;52.168;21.296;2022-11-21T03:14:36;69.13;;;27.83;;
55063;SDS011;40963;52.168;21.296;2022-11-21T03:17:02;67.95;;;24.33;;
55063;SDS011;40963;52.168;21.296;2022-11-21T03:19:28;65.55;;;24.77;;
55063;SDS011;40963;52.168;21.296;2022-11-21T03:21:54;61.33;;;23.67;;
55063;SDS011;40963;52.168;21.296;2022-11-21T03:24:20;59.20;;;22.08;;
55063;SDS011;40963;52.168;21.296;2022-11-21T03:26:46;66.70;;;24.13;;
55063;SDS011;40963;52.168;21.296;2022-11-21T03:29:11;75.47;;;26.27;;
55063;SDS011;40963;52.168;21.296;2022-11-21T03:31:37;70.25;;;25.63;;
55063;SDS011;40963;52.168;21.296;2022-11-21T03:34:03;69.20;;;24.83;;
55063;SDS011;40963;52.168;21.296;2022-11-21T03:36:28;68.20;;;24.67;;
55063;SDS011;40963;52.168;21.296;2022-11-21T03:38:54;66.72;;;25.35;;
55063;SDS011;40963;52.168;21.296;2022-11-21T03:41:21;65.03;;;23.90;;
55063;SDS011;40963;52.168;21.296;2022-11-21T03:44:00;52.95;;;19.52;;
55063;SDS011;40963;52.168;21.296;2022-11-21T03:46:27;57.15;;;22.85;;
55063;SDS011;40963;52.168;21.296;2022-11-21T03:48:55;56.60;;;21.73;;
55063;SDS011;40963;52.168;21.296;2022-11-21T03:51:20;48.90;;;22.35;;
55063;SDS011;40963;52.168;21.296;2022-11-21T03:53:46;57.90;;;23.58;;
55063;SDS011;40963;52.168;21.296;2022-11-21T03:56:12;61.42;;;25.80;;
55063;SDS011;40963;52.168;21.296;2022-11-21T03:58:38;82.35;;;25.55;;
55063;SDS011;40963;52.168;21.296;2022-11-21T04:01:04;76.53;;;26.65;;
55063;SDS011;40963;52.168;21.296;2022-11-21T04:03:30;69.55;;;25.92;;
55063;SDS011;40963;52.168;21.296;2022-11-21T04:05:55;61.83;;;22.20;;
55063;SDS011;40963;52.168;21.296;2022-11-21T04:08:21;56.72;;;23.23;;
55063;SDS011;40963;52.168;21.296;2022-11-21T04:10:50;64.75;;;24.70;;
55063;SDS011;40963;52.168;21.296;2022-11-21T04:13:17;65.78;;;25.73;;
55063;SDS011;40963;52.168;21.296;2022-11-21T04:15:43;69.28;;;25.40;;
55063;SDS011;40963;52.168;21.296;2022-11-21T04:18:09;71.03;;;23.73;;
55063;SDS011;40963;52.168;21.296;2022-11-21T04:20:35;63.97;;;26.00;;
55063;SDS011;40963;52.168;21.296;2022-11-21T04:23:01;62.75;;;24.38;;
55063;SDS011;40963;52.168;21.296;2022-11-21T04:25:27;69.97;;;24.08;;
55063;SDS011;40963;52.168;21.296;2022-11-21T04:27:56;85.10;;;25.90;;
55063;SDS011;40963;52.168;21.296;2022-11-21T04:30:23;64.00;;;24.55;;
55063;SDS011;40963;52.168;21.296;2022-11-21T04:32:49;57.17;;;23.70;;
55063;SDS011;40963;52.168;21.296;2022-11-21T04:35:15;57.05;;;24.20;;
55063;SDS011;40963;52.168;21.296;2022-11-21T04:37:41;71.68;;;25.83;;
55063;SDS011;40963;52.168;21.296;2022-11-21T04:40:07;69.47;;;24.48;;
55063;SDS011;40963;52.168;21.296;2022-11-21T04:42:33;72.80;;;25.13;;
55063;SDS011;40963;52.168;21.296;2022-11-21T04:44:58;75.68;;;27.83;;
55063;SDS011;40963;52.168;21.296;2022-11-21T04:47:24;70.22;;;27.35;;
55063;SDS011;40963;52.168;21.296;2022-11-21T04:49:49;80.90;;;26.25;;
55063;SDS011;40963;52.168;21.296;2022-11-21T04:52:15;73.47;;;26.52;;
55063;SDS011;40963;52.168;21.296;2022-11-21T04:54:41;68.82;;;22.65;;
55063;SDS011;40963;52.168;21.296;2022-11-21T04:57:06;72.47;;;27.63;;
55063;SDS011;40963;52.168;21.296;2022-11-21T04:59:32;68.13;;;26.02;;
55063;SDS011;40963;52.168;21.296;2022-11-21T05:01:58;67.40;;;26.02;;
55063;SDS011;40963;52.168;21.296;2022-11-21T05:04:24;72.95;;;29.63;;
55063;SDS011;40963;52.168;21.296;2022-11-21T05:06:49;67.38;;;25.63;;
55063;SDS011;40963;52.168;21.296;2022-11-21T05:09:15;75.20;;;27.52;;
55063;SDS011;40963;52.168;21.296;2022-11-21T05:11:40;67.68;;;25.83;;
55063;SDS011;40963;52.168;21.296;2022-11-21T05:14:25;84.18;;;27.40;;
55063;SDS011;40963;52.168;21.296;2022-11-21T05:16:51;72.32;;;26.65;;
55063;SDS011;40963;52.168;21.296;2022-11-21T05:19:17;76.40;;;28.92;;
55063;SDS011;40963;52.168;21.296;2022-11-21T05:21:43;76.82;;;27.55;;
55063;SDS011;40963;52.168;21.296;2022-11-21T05:24:08;89.93;;;31.33;;
55063;SDS011;40963;52.168;21.296;2022-11-21T05:26:34;74.90;;;28.95;;
55063;SDS011;40963;52.168;21.296;2022-11-21T05:29:00;76.18;;;26.30;;
55063;SDS011;40963;52.168;21.296;2022-11-21T05:31:25;83.88;;;29.92;;
55063;SDS011;40963;52.168;21.296;2022-11-21T05:33:51;79.97;;;28.67;;
55063;SDS011;40963;52.168;21.296;2022-11-21T05:36:17;75.45;;;30.33;;
55063;SDS011;40963;52.168;21.296;2022-11-21T05:38:42;72.25;;;28.38;;
55063;SDS011;40963;52.168;21.296;2022-11-21T05:41:08;68.05;;;28.10;;
55063;SDS011;40963;52.168;21.296;2022-11-21T05:43:33;87.32;;;30.25;;
55063;SDS011;40963;52.168;21.296;2022-11-21T05:46:12;71.90;;;30.13;;
55063;SDS011;40963;52.168;21.296;2022-11-21T05:48:42;67.50;;;27.33;;
55063;SDS011;40963;52.168;21.296;2022-11-21T05:51:08;89.78;;;27.75;;
55063;SDS011;40963;52.168;21.296;2022-11-21T05:53:34;69.97;;;28.65;;
55063;SDS011;40963;52.168;21.296;2022-11-21T05:56:03;83.63;;;32.92;;
55063;SDS011;40963;52.168;21.296;2022-11-21T05:58:30;84.90;;;31.10;;
55063;SDS011;40963;52.168;21.296;2022-11-21T06:00:57;100.28;;;32.00;;
55063;SDS011;40963;52.168;21.296;2022-11-21T06:03:23;68.30;;;27.45;;
55063;SDS011;40963;52.168;21.296;2022-11-21T06:08:25;77.32;;;28.08;;
55063;SDS011;40963;52.168;21.296;2022-11-21T06:10:52;81.60;;;28.45;;
55063;SDS011;40963;52.168;21.296;2022-11-21T06:13:18;82.97;;;29.83;;
55063;SDS011;40963;52.168;21.296;2022-11-21T06:15:50;83.75;;;31.25;;
55063;SDS011;40963;52.168;21.296;2022-11-21T06:18:16;70.00;;;29.08;;
55063;SDS011;40963;52.168;21.296;2022-11-21T06:20:42;74.15;;;28.23;;
55063;SDS011;40963;52.168;21.296;2022-11-21T06:23:08;75.15;;;26.75;;
55063;SDS011;40963;52.168;21.296;2022-11-21T06:25:33;72.30;;;28.58;;
55063;SDS011;40963;52.168;21.296;2022-11-21T06:27:59;61.85;;;27.25;;
55063;SDS011;40963;52.168;21.296;2022-11-21T06:30:25;75.63;;;29.08;;
55063;SDS011;40963;52.168;21.296;2022-11-21T06:32:50;91.95;;;28.30;;
55063;SDS011;40963;52.168;21.296;2022-11-21T06:35:16;90.85;;;29.30;;
55063;SDS011;40963;52.168;21.296;2022-11-21T06:37:42;89.50;;;32.05;;
55063;SDS011;40963;52.168;21.296;2022-11-21T06:40:07;79.38;;;33.63;;
55063;SDS011;40963;52.168;21.296;2022-11-21T06:42:34;86.45;;;33.10;;
55063;SDS011;40963;52.168;21.296;2022-11-21T06:44:59;92.55;;;32.85;;
55063;SDS011;40963;52.168;21.296;2022-11-21T06:47:25;95.05;;;36.55;;
55063;SDS011;40963;52.168;21.296;2022-11-21T06:49:50;108.75;;;36.67;;
55063;SDS011;40963;52.168;21.296;2022-11-21T06:52:16;109.57;;;32.95;;
55063;SDS011;40963;52.168;21.296;2022-11-21T06:54:42;103.22;;;36.20;;
55063;SDS011;40963;52.168;21.296;2022-11-21T06:57:07;121.88;;;39.67;;
55063;SDS011;40963;52.168;21.296;2022-11-21T06:59:33;125.30;;;39.05;;
55063;SDS011;40963;52.168;21.296;2022-11-21T07:01:59;100.95;;;32.10;;
55063;SDS011;40963;52.168;21.296;2022-11-21T07:04:25;87.25;;;33.15;;
55063;SDS011;40963;52.168;21.296;2022-11-21T07:06:50;89.22;;;33.53;;
55063;SDS011;40963;52.168;21.296;2022-11-21T07:09:16;78.78;;;31.92;;
55063;SDS011;40963;52.168;21.296;2022-11-21T07:11:42;94.50;;;33.50;;
55063;SDS011;40963;52.168;21.296;2022-11-21T07:14:07;121.05;;;33.17;;
55063;SDS011;40963;52.168;21.296;2022-11-21T07:16:33;112.85;;;35.88;;
55063;SDS011;40963;52.168;21.296;2022-11-21T07:18:59;98.18;;;33.28;;
55063;SDS011;40963;52.168;21.296;2022-11-21T07:21:25;102.13;;;33.30;;
55063;SDS011;40963;52.168;21.296;2022-11-21T07:23:51;97.50;;;34.28;;
55063;SDS011;40963;52.168;21.296;2022-11-21T07:26:17;110.38;;;37.22;;
55063;SDS011;40963;52.168;21.296;2022-11-21T07:28:42;90.45;;;34.50;;
55063;SDS011;40963;52.168;21.296;2022-11-21T07:31:08;85.55;;;29.85;;
55063;SDS011;40963;52.168;21.296;2022-11-21T07:33:34;116.53;;;39.60;;
55063;SDS011;40963;52.168;21.296;2022-11-21T07:36:01;97.70;;;33.50;;
55063;SDS011;40963;52.168;21.296;2022-11-21T07:38:27;102.20;;;36.83;;
55063;SDS011;40963;52.168;21.296;2022-11-21T07:40:54;115.55;;;39.28;;
55063;SDS011;40963;52.168;21.296;2022-11-21T07:43:21;106.47;;;35.47;;
55063;SDS011;40963;52.168;21.296;2022-11-21T07:45:46;107.88;;;36.13;;
55063;SDS011;40963;52.168;21.296;2022-11-21T07:48:12;106.75;;;38.33;;
55063;SDS011;40963;52.168;21.296;2022-11-21T07:50:38;105.10;;;35.72;;
55063;SDS011;40963;52.168;21.296;2022-11-21T07:53:04;120.13;;;36.78;;
55063;SDS011;40963;52.168;21.296;2022-11-21T07:55:32;94.43;;;34.97;;
55063;SDS011;40963;52.168;21.296;2022-11-21T07:57:58;97.20;;;32.47;;
55063;SDS011;40963;52.168;21.296;2022-11-21T08:00:25;111.53;;;39.25;;
55063;SDS011;40963;52.168;21.296;2022-11-21T08:02:52;96.38;;;38.80;;
55063;SDS011;40963;52.168;21.296;2022-11-21T08:05:18;108.28;;;37.03;;
55063;SDS011;40963;52.168;21.296;2022-11-21T08:07:43;106.25;;;37.03;;
55063;SDS011;40963;52.168;21.296;2022-11-21T08:10:09;103.10;;;35.38;;
55063;SDS011;40963;52.168;21.296;2022-11-21T08:12:35;107.68;;;37.92;;
55063;SDS011;40963;52.168;21.296;2022-11-21T08:15:00;91.15;;;34.38;;
55063;SDS011;40963;52.168;21.296;2022-11-21T08:17:26;107.03;;;35.60;;
55063;SDS011;40963;52.168;21.296;2022-11-21T08:19:52;98.90;;;33.65;;
55063;SDS011;40963;52.168;21.296;2022-11-21T08:22:17;101.45;;;33.13;;
55063;SDS011;40963;52.168;21.296;2022-11-21T08:24:43;97.03;;;33.70;;
55063;SDS011;40963;52.168;21.296;2022-11-21T08:27:09;90.82;;;31.88;;
55063;SDS011;40963;52.168;21.296;2022-11-21T08:29:34;94.72;;;32.17;;
55063;SDS011;40963;52.168;21.296;2022-11-21T08:32:00;100.68;;;35.30;;
55063;SDS011;40963;52.168;21.296;2022-11-21T08:34:26;89.88;;;32.97;;
55063;SDS011;40963;52.168;21.296;2022-11-21T08:36:55;87.90;;;32.55;;
55063;SDS011;40963;52.168;21.296;2022-11-21T08:39:20;88.60;;;29.75;;
55063;SDS011;40963;52.168;21.296;2022-11-21T08:41:46;87.70;;;33.33;;
55063;SDS011;40963;52.168;21.296;2022-11-21T08:44:31;86.90;;;30.63;;
55063;SDS011;40963;52.168;21.296;2022-11-21T08:46:58;94.68;;;33.50;;
55063;SDS011;40963;52.168;21.296;2022-11-21T08:49:24;99.72;;;37.45;;
55063;SDS011;40963;52.168;21.296;2022-11-21T08:51:50;107.85;;;41.40;;
55063;SDS011;40963;52.168;21.296;2022-11-21T08:54:16;96.10;;;34.38;;
55063;SDS011;40963;52.168;21.296;2022-11-21T08:56:43;99.07;;;35.63;;
55063;SDS011;40963;52.168;21.296;2022-11-21T08:59:09;94.90;;;31.77;;
55063;SDS011;40963;52.168;21.296;2022-11-21T09:01:35;94.68;;;35.05;;
55063;SDS011;40963;52.168;21.296;2022-11-21T09:04:02;91.32;;;31.00;;
55063;SDS011;40963;52.168;21.296;2022-11-21T09:06:28;77.78;;;28.92;;
55063;SDS011;40963;52.168;21.296;2022-11-21T09:08:54;73.07;;;28.55;;
55063;SDS011;40963;52.168;21.296;2022-11-21T09:11:19;93.15;;;29.92;;
55063;SDS011;40963;52.168;21.296;2022-11-21T09:13:45;99.03;;;34.88;;
55063;SDS011;40963;52.168;21.296;2022-11-21T09:16:33;97.30;;;33.50;;
55063;SDS011;40963;52.168;21.296;2022-11-21T09:19:17;74.50;;;29.45;;
55063;SDS011;40963;52.168;21.296;2022-11-21T09:21:43;82.15;;;31.27;;
55063;SDS011;40963;52.168;21.296;2022-11-21T09:24:09;84.20;;;31.90;;
55063;SDS011;40963;52.168;21.296;2022-11-21T09:26:35;97.72;;;35.70;;
55063;SDS011;40963;52.168;21.296;2022-11-21T09:29:01;109.20;;;41.28;;
55063;SDS011;40963;52.168;21.296;2022-11-21T09:31:27;112.60;;;42.47;;
55063;SDS011;40963;52.168;21.296;2022-11-21T09:33:53;82.78;;;33.13;;
55063;SDS011;40963;52.168;21.296;2022-11-21T09:36:18;72.22;;;29.38;;
55063;SDS011;40963;52.168;21.296;2022-11-21T09:38:44;94.85;;;34.80;;
55063;SDS011;40963;52.168;21.296;2022-11-21T09:41:19;74.53;;;31.02;;
55063;SDS011;40963;52.168;21.296;2022-11-21T09:44:22;132.50;;;44.77;;
55063;SDS011;40963;52.168;21.296;2022-11-21T09:47:03;83.75;;;32.42;;
55063;SDS011;40963;52.168;21.296;2022-11-21T09:49:45;96.97;;;31.55;;
55063;SDS011;40963;52.168;21.296;2022-11-21T09:52:14;95.75;;;36.80;;
55063;SDS011;40963;52.168;21.296;2022-11-21T09:54:51;89.45;;;31.98;;
55063;SDS011;40963;52.168;21.296;2022-11-21T09:57:22;81.32;;;26.15;;
55063;SDS011;40963;52.168;21.296;2022-11-21T09:59:49;80.45;;;30.20;;
55063;SDS011;40963;52.168;21.296;2022-11-21T10:02:17;75.82;;;28.63;;
55063;SDS011;40963;52.168;21.296;2022-11-21T10:04:44;110.18;;;39.28;;
55063;SDS011;40963;52.168;21.296;2022-11-21T10:07:12;69.10;;;27.25;;
55063;SDS011;40963;52.168;21.296;2022-11-21T10:31:42;65.95;;;26.20;;
55063;SDS011;40963;52.168;21.296;2022-11-21T10:34:12;62.63;;;25.00;;
55063;SDS011;40963;52.168;21.296;2022-11-21T10:36:46;60.90;;;25.27;;
55063;SDS011;40963;52.168;21.296;2022-11-21T10:39:21;73.95;;;28.27;;
55063;SDS011;40963;52.168;21.296;2022-11-21T10:44:44;75.77;;;29.00;;
55063;SDS011;40963;52.168;21.296;2022-11-21T10:47:32;73.63;;;26.65;;
55063;SDS011;40963;52.168;21.296;2022-11-21T10:52:33;60.95;;;23.50;;
55063;SDS011;40963;52.168;21.296;2022-11-21T10:57:52;78.32;;;31.27;;
55063;SDS011;40963;52.168;21.296;2022-11-21T11:00:25;68.20;;;27.70;;
55063;SDS011;40963;52.168;21.296;2022-11-21T11:05:29;69.53;;;26.92;;
55063;SDS011;40963;52.168;21.296;2022-11-21T11:10:30;69.80;;;26.92;;
55063;SDS011;40963;52.168;21.296;2022-11-21T11:12:57;70.32;;;26.90;;
55063;SDS011;40963;52.168;21.296;2022-11-21T11:15:52;72.43;;;27.45;;
55063;SDS011;40963;52.168;21.296;2022-11-21T11:18:21;50.08;;;19.75;;
55063;SDS011;40963;52.168;21.296;2022-11-21T11:20:48;68.57;;;26.55;;
55063;SDS011;40963;52.168;21.296;2022-11-21T11:25:50;74.57;;;26.52;;
55063;SDS011;40963;52.168;21.296;2022-11-21T11:28:19;66.63;;;26.10;;
55063;SDS011;40963;52.168;21.296;2022-11-21T11:30:48;74.20;;;27.52;;
55063;SDS011;40963;52.168;21.296;2022-11-21T11:35:57;61.63;;;24.50;;
55063;SDS011;40963;52.168;21.296;2022-11-21T11:38:47;59.90;;;24.48;;
55063;SDS011;40963;52.168;21.296;2022-11-21T11:44:48;66.35;;;25.77;;
55063;SDS011;40963;52.168;21.296;2022-11-21T11:47:59;57.97;;;23.45;;
55063;SDS011;40963;52.168;21.296;2022-11-21T11:50:29;61.33;;;23.92;;
55063;SDS011;40963;52.168;21.296;2022-11-21T12:01:10;91.38;;;31.58;;
55063;SDS011;40963;52.168;21.296;2022-11-21T12:03:43;71.25;;;25.25;;
55063;SDS011;40963;52.168;21.296;2022-11-21T12:06:24;59.80;;;24.20;;
55063;SDS011;40963;52.168;21.296;2022-11-21T12:14:52;51.75;;;22.40;;
55063;SDS011;40963;52.168;21.296;2022-11-21T12:20:36;75.28;;;27.25;;
55063;SDS011;40963;52.168;21.296;2022-11-21T12:23:10;54.50;;;22.43;;
55063;SDS011;40963;52.168;21.296;2022-11-21T12:25:39;79.18;;;27.35;;
55063;SDS011;40963;52.168;21.296;2022-11-21T12:28:19;67.70;;;28.23;;
55063;SDS011;40963;52.168;21.296;2022-11-21T12:33:31;85.07;;;31.02;;
55063;SDS011;40963;52.168;21.296;2022-11-21T12:42:35;69.88;;;26.10;;
55063;SDS011;40963;52.168;21.296;2022-11-21T12:45:32;58.45;;;23.08;;
55063;SDS011;40963;52.168;21.296;2022-11-21T12:57:06;85.88;;;31.90;;
55063;SDS011;40963;52.168;21.296;2022-11-21T12:59:43;80.97;;;28.25;;
55063;SDS011;40963;52.168;21.296;2022-11-21T13:02:25;77.65;;;28.42;;
55063;SDS011;40963;52.168;21.296;2022-11-21T13:04:59;92.25;;;28.60;;
55063;SDS011;40963;52.168;21.296;2022-11-21T13:07:28;75.82;;;28.23;;
55063;SDS011;40963;52.168;21.296;2022-11-21T13:09:56;78.53;;;28.83;;
55063;SDS011;40963;52.168;21.296;2022-11-21T13:15:18;80.38;;;28.73;;
55063;SDS011;40963;52.168;21.296;2022-11-21T13:17:55;81.03;;;29.90;;
55063;SDS011;40963;52.168;21.296;2022-11-21T13:20:31;88.35;;;29.77;;
55063;SDS011;40963;52.168;21.296;2022-11-21T13:23:07;76.25;;;28.90;;
55063;SDS011;40963;52.168;21.296;2022-11-21T13:28:50;80.82;;;30.27;;
55063;SDS011;40963;52.168;21.296;2022-11-21T13:31:31;85.40;;;29.05;;
55063;SDS011;40963;52.168;21.296;2022-11-21T13:33:58;78.25;;;28.75;;
55063;SDS011;40963;52.168;21.296;2022-11-21T13:44:28;81.10;;;30.70;;
55063;SDS011;40963;52.168;21.296;2022-11-21T13:52:12;73.75;;;28.85;;
55063;SDS011;40963;52.168;21.296;2022-11-21T13:55:32;88.35;;;32.42;;
55063;SDS011;40963;52.168;21.296;2022-11-21T13:57:59;87.43;;;30.00;;
55063;SDS011;40963;52.168;21.296;2022-11-21T14:06:40;94.35;;;31.95;;
55063;SDS011;40963;52.168;21.296;2022-11-21T14:15:07;82.72;;;29.08;;
55063;SDS011;40963;52.168;21.296;2022-11-21T14:17:45;88.45;;;32.95;;
55063;SDS011;40963;52.168;21.296;2022-11-21T14:20:21;95.03;;;33.00;;
55063;SDS011;40963;52.168;21.296;2022-11-21T14:28:24;96.88;;;31.92;;
55063;SDS011;40963;52.168;21.296;2022-11-21T14:30:57;92.38;;;31.50;;
55063;SDS011;40963;52.168;21.296;2022-11-21T14:33:31;83.70;;;31.58;;
55063;SDS011;40963;52.168;21.296;2022-11-21T14:38:41;86.82;;;31.85;;
55063;SDS011;40963;52.168;21.296;2022-11-21T14:46:31;97.55;;;35.30;;
55063;SDS011;40963;52.168;21.296;2022-11-21T14:51:44;83.35;;;28.13;;
55063;SDS011;40963;52.168;21.296;2022-11-21T14:54:16;78.60;;;27.88;;
55063;SDS011;40963;52.168;21.296;2022-11-21T14:56:48;88.03;;;29.95;;
55063;SDS011;40963;52.168;21.296;2022-11-21T14:59:23;84.25;;;30.35;;
55063;SDS011;40963;52.168;21.296;2022-11-21T15:02:06;78.60;;;28.58;;
55063;SDS011;40963;52.168;21.296;2022-11-21T15:04:42;86.35;;;29.17;;
55063;SDS011;40963;52.168;21.296;2022-11-21T15:09:43;94.88;;;28.02;;
55063;SDS011;40963;52.168;21.296;2022-11-21T15:12:09;93.25;;;32.13;;
55063;SDS011;40963;52.168;21.296;2022-11-21T15:14:47;90.72;;;31.75;;
55063;SDS011;40963;52.168;21.296;2022-11-21T15:17:21;92.50;;;33.35;;
55063;SDS011;40963;52.168;21.296;2022-11-21T15:20:01;107.82;;;34.70;;
55063;SDS011;40963;52.168;21.296;2022-11-21T15:22:40;94.35;;;33.00;;
55063;SDS011;40963;52.168;21.296;2022-11-21T15:25:07;99.18;;;33.25;;
55063;SDS011;40963;52.168;21.296;2022-11-21T15:27:39;131.25;;;47.33;;
55063;SDS011;40963;52.168;21.296;2022-11-21T15:30:18;92.60;;;30.83;;
55063;SDS011;40963;52.168;21.296;2022-11-21T15:39:02;83.20;;;26.02;;
55063;SDS011;40963;52.168;21.296;2022-11-21T15:43:44;55.45;;;19.85;;
55063;SDS011;40963;52.168;21.296;2022-11-21T15:48:53;96.00;;;33.10;;
55063;SDS011;40963;52.168;21.296;2022-11-21T15:51:24;88.63;;;30.05;;
55063;SDS011;40963;52.168;21.296;2022-11-21T15:53:50;107.32;;;36.70;;
55063;SDS011;40963;52.168;21.296;2022-11-21T15:56:17;106.57;;;36.22;;
55063;SDS011;40963;52.168;21.296;2022-11-21T15:58:44;90.40;;;33.28;;
55063;SDS011;40963;52.168;21.296;2022-11-21T16:01:14;50.85;;;15.60;;
55063;SDS011;40963;52.168;21.296;2022-11-21T16:03:42;54.05;;;17.88;;
55063;SDS011;40963;52.168;21.296;2022-11-21T16:06:08;64.97;;;22.10;;
55063;SDS011;40963;52.168;21.296;2022-11-21T16:08:34;79.65;;;27.75;;
55063;SDS011;40963;52.168;21.296;2022-11-21T16:11:00;98.18;;;32.38;;
55063;SDS011;40963;52.168;21.296;2022-11-21T16:13:26;81.80;;;27.27;;
55063;SDS011;40963;52.168;21.296;2022-11-21T16:15:51;92.10;;;29.05;;
55063;SDS011;40963;52.168;21.296;2022-11-21T16:18:17;83.97;;;26.23;;
55063;SDS011;40963;52.168;21.296;2022-11-21T16:20:42;84.85;;;28.88;;
55063;SDS011;40963;52.168;21.296;2022-11-21T16:23:11;98.28;;;29.98;;
55063;SDS011;40963;52.168;21.296;2022-11-21T16:25:37;71.80;;;24.58;;
55063;SDS011;40963;52.168;21.296;2022-11-21T16:28:18;91.05;;;28.40;;
55063;SDS011;40963;52.168;21.296;2022-11-21T16:30:44;76.28;;;26.80;;
55063;SDS011;40963;52.168;21.296;2022-11-21T16:33:09;95.30;;;31.88;;
55063;SDS011;40963;52.168;21.296;2022-11-21T16:35:36;89.88;;;30.65;;
55063;SDS011;40963;52.168;21.296;2022-11-21T16:38:06;89.90;;;28.70;;
55063;SDS011;40963;52.168;21.296;2022-11-21T16:40:35;82.05;;;26.73;;
55063;SDS011;40963;52.168;21.296;2022-11-21T16:43:10;90.78;;;30.25;;
55063;SDS011;40963;52.168;21.296;2022-11-21T16:45:37;73.13;;;27.88;;
55063;SDS011;40963;52.168;21.296;2022-11-21T16:48:04;86.22;;;30.33;;
55063;SDS011;40963;52.168;21.296;2022-11-21T16:50:30;87.70;;;29.83;;
55063;SDS011;40963;52.168;21.296;2022-11-21T16:52:56;74.60;;;27.48;;